Time;durP1;ratioP1;P1;durP2;ratioP2;P2;SDS_P1;SDS_P2;PMS_P1;PMS_P2;Temp;Humidity;BMP_temperature;BMP_pressure;BME280_temperature;BME280_humidity;BME280_pressure;Samples;Min_cycle;Max_cycle;Signal;HPM_P1;HPM_P2
2023/12/18 00:02:12;;;;;;;25.35;14.80;;;;;;;;;;5078004;28;20509;-44
2023/12/18 00:04:38;;;;;;;19.05;13.57;;;;;;;;;;5088843;28;20493;-46
2023/12/18 00:07:03;;;;;;;20.67;11.73;;;;;;;;;;5075701;28;20024;-46
2023/12/18 00:09:29;;;;;;;14.75;11.55;;;;;;;;;;5078833;28;20044;-46
2023/12/18 00:11:54;;;;;;;16.20;11.13;;;;;;;;;;5078487;28;20490;-47
2023/12/18 00:14:19;;;;;;;11.50;8.90;;;;;;;;;;5080238;28;20040;-44
2023/12/18 00:16:45;;;;;;;11.45;8.52;;;;;;;;;;5075126;28;20436;-45
2023/12/18 00:19:10;;;;;;;11.93;8.93;;;;;;;;;;5077296;28;20528;-48
2023/12/18 00:21:35;;;;;;;12.18;7.63;;;;;;;;;;5076510;28;20041;-47
2023/12/18 00:24:01;;;;;;;12.15;9.20;;;;;;;;;;5075000;28;20043;-44
2023/12/18 00:26:26;;;;;;;11.73;8.65;;;;;;;;;;5076880;28;20035;-47
2023/12/18 00:28:52;;;;;;;10.82;7.82;;;;;;;;;;5078869;28;20028;-44
2023/12/18 00:31:17;;;;;;;12.75;8.30;;;;;;;;;;5078632;28;20584;-47
2023/12/18 00:33:43;;;;;;;13.57;8.98;;;;;;;;;;5074531;28;20070;-48
2023/12/18 00:36:08;;;;;;;14.45;8.00;;;;;;;;;;5076631;28;20448;-47
2023/12/18 00:38:33;;;;;;;9.93;7.88;;;;;;;;;;5076988;28;20040;-45
2023/12/18 00:40:59;;;;;;;12.43;7.85;;;;;;;;;;5079687;28;20043;-44
2023/12/18 00:43:25;;;;;;;14.43;8.90;;;;;;;;;;5077230;28;20052;-44
2023/12/18 00:45:50;;;;;;;12.68;7.78;;;;;;;;;;5077368;28;20043;-44
2023/12/18 00:48:15;;;;;;;15.40;8.65;;;;;;;;;;5075708;28;20078;-45
2023/12/18 00:50:41;;;;;;;11.15;7.65;;;;;;;;;;5076694;28;20024;-48
2023/12/18 00:53:06;;;;;;;11.98;7.68;;;;;;;;;;5079464;28;20043;-45
2023/12/18 00:55:31;;;;;;;14.40;7.97;;;;;;;;;;5093356;28;20143;-44
2023/12/18 00:57:57;;;;;;;9.80;7.65;;;;;;;;;;5060109;28;20429;-46
2023/12/18 01:00:22;;;;;;;13.82;8.63;;;;;;;;;;5074336;28;20390;-47
2023/12/18 01:02:48;;;;;;;17.20;8.77;;;;;;;;;;5076235;28;20084;-44
2023/12/18 01:05:16;;;;;;;13.82;8.70;;;;;;;;;;5077014;28;20030;-48
2023/12/18 01:07:42;;;;;;;10.80;6.60;;;;;;;;;;5074522;28;20107;-45
2023/12/18 01:10:08;;;;;;;13.40;8.40;;;;;;;;;;5075901;28;20060;-49
2023/12/18 01:12:34;;;;;;;14.48;9.45;;;;;;;;;;5076762;28;20078;-45
2023/12/18 01:14:59;;;;;;;13.07;8.07;;;;;;;;;;5075802;28;20496;-45
2023/12/18 01:17:25;;;;;;;8.98;7.03;;;;;;;;;;5075593;28;20029;-47
2023/12/18 01:19:50;;;;;;;10.23;7.38;;;;;;;;;;5077748;28;20486;-46
2023/12/18 01:22:15;;;;;;;12.65;8.02;;;;;;;;;;5081861;28;20041;-45
2023/12/18 01:24:41;;;;;;;10.15;6.53;;;;;;;;;;5074498;28;20047;-46
2023/12/18 01:27:06;;;;;;;11.27;7.68;;;;;;;;;;5075664;28;20074;-44
2023/12/18 01:29:32;;;;;;;11.20;8.45;;;;;;;;;;5075706;28;20032;-44
2023/12/18 01:31:57;;;;;;;15.45;8.23;;;;;;;;;;5078164;28;20055;-48
2023/12/18 01:34:22;;;;;;;15.00;10.80;;;;;;;;;;5073935;28;20040;-44
2023/12/18 01:36:48;;;;;;;14.05;9.68;;;;;;;;;;5075855;28;20489;-45
2023/12/18 01:39:13;;;;;;;11.32;8.10;;;;;;;;;;5074760;28;20033;-45
2023/12/18 01:41:39;;;;;;;10.70;6.68;;;;;;;;;;5072852;28;20029;-45
2023/12/18 01:44:05;;;;;;;13.13;8.73;;;;;;;;;;5075384;28;20037;-45
2023/12/18 01:46:35;;;;;;;13.02;8.27;;;;;;;;;;5086947;28;20444;-45
2023/12/18 01:49:01;;;;;;;15.88;10.43;;;;;;;;;;5074116;28;20125;-44
2023/12/18 01:51:28;;;;;;;17.10;10.68;;;;;;;;;;5072492;28;20052;-46
2023/12/18 01:53:56;;;;;;;15.65;9.45;;;;;;;;;;5079290;28;20064;-45
2023/12/18 01:56:25;;;;;;;13.82;9.75;;;;;;;;;;5078933;28;20034;-45
2023/12/18 01:58:54;;;;;;;14.25;8.13;;;;;;;;;;5079910;28;20462;-44
2023/12/18 02:01:19;;;;;;;15.02;10.18;;;;;;;;;;5080836;28;20025;-47
2023/12/18 02:03:45;;;;;;;18.55;10.18;;;;;;;;;;5074366;28;20033;-45
2023/12/18 02:06:13;;;;;;;11.82;8.18;;;;;;;;;;5073063;28;20032;-46
2023/12/18 02:08:39;;;;;;;9.38;7.60;;;;;;;;;;5074569;28;20077;-45
2023/12/18 02:11:04;;;;;;;14.35;8.88;;;;;;;;;;5074869;28;20054;-45
2023/12/18 02:13:30;;;;;;;13.95;8.82;;;;;;;;;;5074045;28;20039;-44
2023/12/18 02:15:57;;;;;;;14.52;8.75;;;;;;;;;;5074661;28;20123;-44
2023/12/18 02:18:22;;;;;;;15.20;10.27;;;;;;;;;;5074655;28;20063;-44
2023/12/18 02:20:48;;;;;;;11.82;8.23;;;;;;;;;;5075095;28;20475;-47
2023/12/18 02:23:13;;;;;;;11.02;7.65;;;;;;;;;;5074041;28;20394;-47
2023/12/18 02:25:39;;;;;;;9.43;6.25;;;;;;;;;;5078121;28;20044;-44
2023/12/18 02:28:10;;;;;;;7.88;6.35;;;;;;;;;;5074294;28;20032;-44
2023/12/18 02:30:36;;;;;;;9.23;5.50;;;;;;;;;;5075357;28;20032;-45
2023/12/18 02:33:01;;;;;;;7.80;6.45;;;;;;;;;;5076775;28;20033;-45
2023/12/18 02:35:26;;;;;;;7.95;5.28;;;;;;;;;;5074798;28;20067;-48
2023/12/18 02:37:52;;;;;;;8.70;6.20;;;;;;;;;;5074577;28;20063;-45
2023/12/18 02:40:18;;;;;;;10.55;7.43;;;;;;;;;;5074468;28;20107;-47
2023/12/18 02:42:43;;;;;;;8.38;5.75;;;;;;;;;;5074820;28;20104;-44
2023/12/18 02:45:09;;;;;;;9.15;7.00;;;;;;;;;;5075912;28;20031;-44
2023/12/18 02:47:34;;;;;;;9.63;6.13;;;;;;;;;;5072974;28;20032;-45
2023/12/18 02:50:00;;;;;;;9.95;7.07;;;;;;;;;;5073442;28;20709;-45
2023/12/18 02:52:26;;;;;;;10.60;6.30;;;;;;;;;;5075464;28;20213;-44
2023/12/18 02:54:51;;;;;;;8.70;6.82;;;;;;;;;;5074868;28;20048;-47
2023/12/18 02:57:16;;;;;;;8.32;5.40;;;;;;;;;;5088214;28;20066;-46
2023/12/18 02:59:42;;;;;;;7.82;5.97;;;;;;;;;;5072808;28;20036;-44
2023/12/18 03:02:07;;;;;;;7.82;6.15;;;;;;;;;;5074034;28;20040;-45
2023/12/18 03:04:32;;;;;;;9.60;6.80;;;;;;;;;;5075095;28;20040;-45
2023/12/18 03:06:58;;;;;;;7.70;6.40;;;;;;;;;;5074494;28;20110;-45
2023/12/18 03:09:23;;;;;;;8.45;6.32;;;;;;;;;;5072806;28;20478;-48
2023/12/18 03:11:49;;;;;;;9.70;6.50;;;;;;;;;;5079216;28;20020;-50
2023/12/18 03:14:14;;;;;;;9.13;6.60;;;;;;;;;;5080523;28;20058;-50
2023/12/18 03:16:40;;;;;;;8.95;6.47;;;;;;;;;;5073236;28;20052;-48
2023/12/18 03:19:06;;;;;;;10.00;6.60;;;;;;;;;;5073792;28;20036;-49
2023/12/18 03:21:31;;;;;;;11.18;7.47;;;;;;;;;;5071982;28;20024;-45
2023/12/18 03:23:57;;;;;;;11.27;7.13;;;;;;;;;;5074736;28;20059;-46
2023/12/18 03:26:23;;;;;;;10.48;7.80;;;;;;;;;;5086522;28;20036;-51
2023/12/18 03:28:48;;;;;;;7.40;6.43;;;;;;;;;;5078011;28;20463;-48
2023/12/18 03:31:14;;;;;;;8.57;6.78;;;;;;;;;;5079229;28;20110;-45
2023/12/18 03:33:40;;;;;;;8.98;5.35;;;;;;;;;;5079545;28;21598;-45
2023/12/18 03:36:06;;;;;;;12.00;5.50;;;;;;;;;;5077210;28;20028;-48
2023/12/18 03:38:31;;;;;;;7.88;6.72;;;;;;;;;;5076174;28;20175;-49
2023/12/18 03:40:57;;;;;;;7.95;5.55;;;;;;;;;;5078275;28;20571;-48
2023/12/18 03:43:23;;;;;;;6.20;5.32;;;;;;;;;;5077499;28;20086;-48
2023/12/18 03:45:49;;;;;;;7.65;5.72;;;;;;;;;;5078677;28;20027;-47
2023/12/18 03:48:15;;;;;;;7.40;4.35;;;;;;;;;;5076680;28;20029;-44
2023/12/18 03:50:41;;;;;;;8.15;4.68;;;;;;;;;;5076300;28;20074;-48
2023/12/18 03:53:08;;;;;;;6.15;4.55;;;;;;;;;;5078060;28;20069;-47
2023/12/18 03:55:34;;;;;;;6.38;4.40;;;;;;;;;;5069964;28;20017;-49
2023/12/18 03:57:59;;;;;;;5.30;4.05;;;;;;;;;;5084548;28;20105;-45
2023/12/18 04:00:25;;;;;;;5.45;4.53;;;;;;;;;;5078830;28;20055;-47
2023/12/18 04:02:50;;;;;;;5.85;4.15;;;;;;;;;;5081104;28;20036;-45
2023/12/18 04:05:16;;;;;;;4.95;3.10;;;;;;;;;;5082811;28;20032;-45
2023/12/18 04:07:41;;;;;;;5.70;4.43;;;;;;;;;;5078136;28;20103;-43
2023/12/18 04:10:08;;;;;;;4.78;2.97;;;;;;;;;;5076248;28;20570;-44
2023/12/18 04:12:33;;;;;;;6.00;3.35;;;;;;;;;;5077821;28;20028;-46
2023/12/18 04:14:59;;;;;;;7.97;4.82;;;;;;;;;;5074481;28;20033;-47
2023/12/18 04:17:24;;;;;;;5.63;3.45;;;;;;;;;;5076188;28;20039;-44
2023/12/18 04:19:50;;;;;;;6.20;3.78;;;;;;;;;;5075322;28;20032;-44
2023/12/18 04:22:15;;;;;;;6.05;3.10;;;;;;;;;;5078025;28;20383;-47
2023/12/18 04:24:41;;;;;;;5.43;3.58;;;;;;;;;;5076069;28;20032;-46
2023/12/18 04:27:08;;;;;;;5.53;3.50;;;;;;;;;;5077159;28;20032;-46
2023/12/18 04:29:33;;;;;;;4.35;3.22;;;;;;;;;;5075068;28;20096;-44
2023/12/18 04:31:59;;;;;;;5.03;3.03;;;;;;;;;;5075864;28;20454;-44
2023/12/18 04:34:24;;;;;;;5.18;3.45;;;;;;;;;;5076146;28;20078;-44
2023/12/18 04:36:49;;;;;;;5.18;4.43;;;;;;;;;;5077157;28;20107;-45
2023/12/18 04:39:15;;;;;;;4.13;2.55;;;;;;;;;;5075894;28;20032;-47
2023/12/18 04:41:41;;;;;;;5.05;2.60;;;;;;;;;;5076879;28;20467;-47
2023/12/18 04:44:06;;;;;;;4.65;2.28;;;;;;;;;;5075738;28;20547;-47
2023/12/18 04:46:35;;;;;;;4.30;3.03;;;;;;;;;;5076452;28;20070;-46
2023/12/18 04:49:01;;;;;;;;;;;;;;;;;;5074157;28;20044;-46
2023/12/18 04:51:26;;;;;;;2.70;2.05;;;;;;;;;;5076651;28;20309;-45
2023/12/18 04:53:51;;;;;;;5.93;2.83;;;;;;;;;;5076839;28;20044;-45
2023/12/18 04:56:17;;;;;;;3.67;2.92;;;;;;;;;;5077669;28;20359;-44
2023/12/18 04:58:42;;;;;;;3.35;2.33;;;;;;;;;;5075055;28;20130;-45
2023/12/18 05:01:09;;;;;;;6.50;3.70;;;;;;;;;;5077773;28;20041;-45
2023/12/18 05:03:35;;;;;;;3.88;2.67;;;;;;;;;;5073300;28;20102;-47
2023/12/18 05:06:00;;;;;;;3.78;3.08;;;;;;;;;;5069731;28;20028;-45
2023/12/18 05:08:26;;;;;;;4.43;2.58;;;;;;;;;;5078059;28;20460;-46
2023/12/18 05:10:51;;;;;;;4.95;3.50;;;;;;;;;;5074530;28;20085;-47
2023/12/18 05:13:16;;;;;;;6.68;4.80;;;;;;;;;;5075442;28;21206;-47
2023/12/18 05:15:42;;;;;;;7.85;5.50;;;;;;;;;;5077010;28;20024;-47
2023/12/18 05:18:07;;;;;;;8.73;5.60;;;;;;;;;;5075359;28;20108;-47
2023/12/18 05:20:33;;;;;;;12.75;7.75;;;;;;;;;;5075214;28;20021;-45
2023/12/18 05:22:59;;;;;;;9.10;5.80;;;;;;;;;;5078960;28;20032;-47
2023/12/18 05:25:24;;;;;;;8.07;5.93;;;;;;;;;;5079299;28;20077;-45
2023/12/18 05:27:49;;;;;;;7.82;5.35;;;;;;;;;;5077264;28;20803;-44
2023/12/18 05:30:15;;;;;;;9.50;4.60;;;;;;;;;;5073117;28;20049;-46
2023/12/18 05:32:40;;;;;;;6.93;5.15;;;;;;;;;;5074902;28;20023;-45
2023/12/18 05:35:07;;;;;;;5.47;3.83;;;;;;;;;;5076755;28;20074;-45
2023/12/18 05:37:32;;;;;;;5.30;3.15;;;;;;;;;;5075497;28;20031;-47
2023/12/18 05:39:57;;;;;;;4.82;4.30;;;;;;;;;;5074614;28;20036;-45
2023/12/18 05:42:23;;;;;;;5.45;3.60;;;;;;;;;;5075311;28;20078;-45
2023/12/18 05:44:48;;;;;;;5.28;4.68;;;;;;;;;;5076212;28;20029;-44
2023/12/18 05:47:14;;;;;;;8.35;4.18;;;;;;;;;;5074266;28;20020;-44
2023/12/18 05:49:39;;;;;;;8.57;4.28;;;;;;;;;;5067736;28;20033;-44
2023/12/18 05:52:05;;;;;;;4.45;3.42;;;;;;;;;;5072893;28;20079;-47
2023/12/18 05:54:30;;;;;;;5.68;4.28;;;;;;;;;;5074344;28;20044;-45
2023/12/18 05:56:56;;;;;;;4.30;3.75;;;;;;;;;;5073957;28;20016;-46
2023/12/18 05:59:21;;;;;;;4.85;4.05;;;;;;;;;;5079928;28;20047;-46
2023/12/18 06:01:47;;;;;;;5.40;3.40;;;;;;;;;;5073970;28;20035;-48
2023/12/18 06:04:12;;;;;;;5.00;3.40;;;;;;;;;;5073748;28;20033;-45
2023/12/18 06:06:37;;;;;;;4.43;3.97;;;;;;;;;;5072555;28;20028;-45
2023/12/18 06:09:03;;;;;;;3.90;3.50;;;;;;;;;;5073842;28;20037;-45
2023/12/18 06:11:29;;;;;;;5.78;4.28;;;;;;;;;;5071803;28;20025;-45
2023/12/18 06:13:54;;;;;;;6.88;5.45;;;;;;;;;;5075247;28;22573;-46
2023/12/18 06:16:20;;;;;;;5.97;4.00;;;;;;;;;;5072956;28;20031;-47
2023/12/18 06:18:45;;;;;;;6.03;5.43;;;;;;;;;;5071821;28;20043;-46
2023/12/18 06:21:10;;;;;;;5.88;5.38;;;;;;;;;;5074582;28;20115;-46
2023/12/18 06:23:36;;;;;;;5.50;4.65;;;;;;;;;;5070226;28;20102;-44
2023/12/18 06:26:03;;;;;;;5.75;4.65;;;;;;;;;;5065504;28;20031;-48
2023/12/18 06:28:29;;;;;;;8.55;5.05;;;;;;;;;;5069187;28;20050;-46
2023/12/18 06:30:55;;;;;;;5.47;4.25;;;;;;;;;;5070428;28;20424;-47
2023/12/18 06:33:20;;;;;;;7.45;4.53;;;;;;;;;;5065186;28;20040;-47
2023/12/18 06:35:45;;;;;;;7.55;5.18;;;;;;;;;;5068389;28;20397;-45
2023/12/18 06:38:11;;;;;;;8.68;6.25;;;;;;;;;;5066484;28;20521;-45
2023/12/18 06:40:36;;;;;;;8.45;4.95;;;;;;;;;;5067609;28;20032;-48
2023/12/18 06:43:02;;;;;;;6.82;4.60;;;;;;;;;;5069258;28;20429;-45
2023/12/18 06:45:27;;;;;;;6.40;4.60;;;;;;;;;;5068834;28;20031;-47
2023/12/18 06:47:53;;;;;;;6.88;4.30;;;;;;;;;;5064269;28;20429;-45
2023/12/18 06:50:18;;;;;;;5.35;3.95;;;;;;;;;;5082762;28;20474;-49
2023/12/18 06:52:44;;;;;;;5.03;3.10;;;;;;;;;;5068270;28;20390;-44
2023/12/18 06:55:09;;;;;;;4.53;3.78;;;;;;;;;;5064889;28;20560;-44
2023/12/18 06:57:34;;;;;;;4.65;3.10;;;;;;;;;;5067772;28;20027;-45
2023/12/18 07:00:00;;;;;;;6.30;3.72;;;;;;;;;;5073259;28;20626;-49
2023/12/18 07:02:26;;;;;;;7.22;3.47;;;;;;;;;;5073879;28;20107;-46
2023/12/18 07:04:52;;;;;;;3.95;3.47;;;;;;;;;;5078176;28;20114;-45
2023/12/18 07:07:18;;;;;;;10.13;6.28;;;;;;;;;;5077187;28;20056;-49
2023/12/18 07:09:44;;;;;;;16.50;9.05;;;;;;;;;;5076438;28;20131;-46
2023/12/18 07:12:09;;;;;;;15.55;8.35;;;;;;;;;;5079746;28;20052;-47
2023/12/18 07:14:35;;;;;;;11.95;7.68;;;;;;;;;;5075547;28;20052;-46
2023/12/18 07:17:00;;;;;;;16.10;9.20;;;;;;;;;;5080028;28;20029;-48
2023/12/18 07:19:25;;;;;;;12.07;7.53;;;;;;;;;;5071008;28;20445;-45
2023/12/18 07:21:51;;;;;;;12.13;7.55;;;;;;;;;;5072927;28;20489;-44
2023/12/18 07:24:17;;;;;;;10.63;7.32;;;;;;;;;;5072077;28;20422;-45
2023/12/18 07:26:42;;;;;;;10.52;6.72;;;;;;;;;;5077719;28;20518;-45
2023/12/18 07:29:08;;;;;;;11.45;6.93;;;;;;;;;;5077275;28;20041;-46
2023/12/18 07:31:33;;;;;;;11.48;9.30;;;;;;;;;;5077046;28;20025;-47
2023/12/18 07:33:59;;;;;;;9.18;7.55;;;;;;;;;;5075573;28;20047;-45
2023/12/18 07:36:24;;;;;;;12.90;9.70;;;;;;;;;;5052955;28;20029;-47
2023/12/18 07:38:49;;;;;;;11.63;8.10;;;;;;;;;;5076136;28;20071;-47
2023/12/18 07:41:15;;;;;;;12.07;9.40;;;;;;;;;;5075515;28;20021;-48
2023/12/18 07:43:41;;;;;;;9.95;8.73;;;;;;;;;;5071283;28;20040;-47
2023/12/18 07:46:19;;;;;;;11.38;10.02;;;;;;;;;;5076433;28;20139;-48
2023/12/18 07:48:47;;;;;;;22.85;16.08;;;;;;;;;;5074982;28;20374;-48
2023/12/18 07:51:13;;;;;;;19.60;13.80;;;;;;;;;;5076582;28;20080;-50
2023/12/18 07:53:38;;;;;;;15.70;11.40;;;;;;;;;;5075560;28;20517;-44
2023/12/18 07:56:04;;;;;;;15.48;10.43;;;;;;;;;;5077128;28;20032;-45
2023/12/18 07:58:30;;;;;;;15.95;11.77;;;;;;;;;;5076422;28;20032;-46
2023/12/18 08:00:55;;;;;;;14.10;10.98;;;;;;;;;;5064694;28;20043;-45
2023/12/18 08:03:20;;;;;;;16.40;11.00;;;;;;;;;;5075824;28;20111;-45
2023/12/18 08:05:46;;;;;;;15.52;13.00;;;;;;;;;;5059231;28;20114;-45
2023/12/18 08:08:11;;;;;;;8.57;7.22;;;;;;;;;;5075918;28;20045;-45
2023/12/18 08:10:37;;;;;;;5.70;5.18;;;;;;;;;;5073486;28;20028;-47
2023/12/18 08:13:02;;;;;;;7.57;5.25;;;;;;;;;;5074670;28;20037;-47
2023/12/18 08:15:28;;;;;;;7.57;6.43;;;;;;;;;;5069242;28;20051;-46
2023/12/18 08:17:53;;;;;;;7.45;5.78;;;;;;;;;;5078214;28;20035;-45
2023/12/18 08:20:19;;;;;;;7.63;5.28;;;;;;;;;;5072773;28;20056;-45
2023/12/18 08:22:44;;;;;;;6.25;5.25;;;;;;;;;;5091860;28;20028;-46
2023/12/18 08:25:10;;;;;;;8.73;5.32;;;;;;;;;;5074600;28;20028;-45
2023/12/18 08:27:35;;;;;;;9.77;6.68;;;;;;;;;;5077359;28;20020;-45
2023/12/18 08:30:04;;;;;;;10.93;7.35;;;;;;;;;;5076474;28;20390;-45
2023/12/18 08:32:29;;;;;;;10.98;6.32;;;;;;;;;;5076503;28;20039;-45
2023/12/18 08:34:55;;;;;;;14.57;9.13;;;;;;;;;;5074206;28;20036;-47
2023/12/18 08:37:20;;;;;;;19.13;10.73;;;;;;;;;;5068627;28;20032;-45
2023/12/18 08:39:45;;;;;;;20.30;11.45;;;;;;;;;;5080511;28;20029;-46
2023/12/18 08:42:11;;;;;;;18.20;9.52;;;;;;;;;;5074513;28;20036;-46
2023/12/18 08:44:36;;;;;;;19.23;10.27;;;;;;;;;;5077172;28;20048;-45
2023/12/18 08:47:02;;;;;;;14.65;10.20;;;;;;;;;;5072911;28;20064;-45
2023/12/18 08:49:27;;;;;;;13.27;9.65;;;;;;;;;;5073696;28;20043;-47
2023/12/18 08:51:53;;;;;;;12.32;9.07;;;;;;;;;;5019462;28;1547590;-47
2023/12/18 08:54:18;;;;;;;12.15;10.25;;;;;;;;;;5075723;28;20051;-46
2023/12/18 08:56:44;;;;;;;12.50;9.30;;;;;;;;;;5075589;28;20516;-49
2023/12/18 08:59:11;;;;;;;10.85;8.93;;;;;;;;;;5075471;28;20127;-48
2023/12/18 09:01:37;;;;;;;9.65;7.43;;;;;;;;;;5074585;28;20024;-48
2023/12/18 09:04:03;;;;;;;12.23;7.57;;;;;;;;;;5089837;28;20120;-45
2023/12/18 09:06:29;;;;;;;9.63;6.85;;;;;;;;;;5074975;28;20048;-46
2023/12/18 09:08:56;;;;;;;9.45;7.75;;;;;;;;;;5075068;28;20047;-47
2023/12/18 09:11:22;;;;;;;23.75;9.52;;;;;;;;;;5075606;28;20397;-45
2023/12/18 09:13:47;;;;;;;22.25;8.65;;;;;;;;;;5075466;28;20028;-48
2023/12/18 09:16:13;;;;;;;22.70;9.10;;;;;;;;;;5075177;28;20034;-46
2023/12/18 09:18:38;;;;;;;16.70;7.70;;;;;;;;;;5074685;28;20486;-46
2023/12/18 09:21:04;;;;;;;10.00;6.57;;;;;;;;;;5074495;28;20028;-46
2023/12/18 09:23:29;;;;;;;11.63;6.85;;;;;;;;;;5075441;28;20398;-47
2023/12/18 09:25:55;;;;;;;11.77;6.65;;;;;;;;;;5076296;28;20024;-47
2023/12/18 09:28:20;;;;;;;9.30;6.75;;;;;;;;;;5075681;28;20036;-46
2023/12/18 09:30:45;;;;;;;11.93;7.75;;;;;;;;;;5074157;28;20023;-45
2023/12/18 09:33:11;;;;;;;12.25;7.25;;;;;;;;;;5075183;28;20066;-45
2023/12/18 09:35:36;;;;;;;10.27;8.32;;;;;;;;;;5073045;28;20505;-47
2023/12/18 09:38:02;;;;;;;12.35;8.75;;;;;;;;;;5071991;28;20398;-47
2023/12/18 09:40:27;;;;;;;10.70;7.40;;;;;;;;;;5075718;28;20043;-47
2023/12/18 09:42:54;;;;;;;13.88;9.60;;;;;;;;;;5073650;28;20032;-46
2023/12/18 09:45:23;;;;;;;12.07;10.57;;;;;;;;;;5074305;28;20036;-45
2023/12/18 09:47:52;;;;;;;9.55;7.90;;;;;;;;;;5074550;28;20070;-46
2023/12/18 09:50:18;;;;;;;;;;;;;;;;;;5074255;28;20041;-47
2023/12/18 09:53:02;;;;;;;9.57;7.30;;;;;;;;;;5074330;28;19975;-48
2023/12/18 09:55:30;;;;;;;10.02;7.03;;;;;;;;;;5072504;28;20498;-47
2023/12/18 09:57:57;;;;;;;10.30;7.85;;;;;;;;;;5072475;28;20017;-46
2023/12/18 10:00:23;;;;;;;15.30;10.57;;;;;;;;;;5074980;28;20458;-46
2023/12/18 10:02:49;;;;;;;15.93;12.10;;;;;;;;;;5075633;28;20077;-47
2023/12/18 10:05:15;;;;;;;17.52;14.40;;;;;;;;;;5074103;28;20036;-46
2023/12/18 10:07:41;;;;;;;17.50;14.88;;;;;;;;;;5068679;28;20081;-47
2023/12/18 10:10:06;;;;;;;21.70;17.35;;;;;;;;;;5075761;28;20115;-45
2023/12/18 10:12:32;;;;;;;19.10;14.90;;;;;;;;;;5076014;28;20052;-46
2023/12/18 10:14:58;;;;;;;18.67;16.08;;;;;;;;;;5072814;28;20055;-48
2023/12/18 10:17:23;;;;;;;17.90;15.93;;;;;;;;;;5073193;28;20034;-46
2023/12/18 10:19:49;;;;;;;18.40;16.17;;;;;;;;;;5072974;28;20033;-49
2023/12/18 10:22:16;;;;;;;21.60;17.13;;;;;;;;;;5074460;28;20124;-48
2023/12/18 10:24:42;;;;;;;20.25;17.02;;;;;;;;;;5070811;28;20516;-46
2023/12/18 10:27:08;;;;;;;21.60;17.23;;;;;;;;;;5074431;28;20105;-46
2023/12/18 10:29:34;;;;;;;20.60;16.63;;;;;;;;;;5075434;28;20050;-46
2023/12/18 10:32:00;;;;;;;22.95;18.60;;;;;;;;;;5082227;28;20127;-49
2023/12/18 10:34:26;;;;;;;22.10;18.80;;;;;;;;;;5071966;28;20040;-50
2023/12/18 10:36:55;;;;;;;19.02;16.98;;;;;;;;;;5075328;28;20039;-50
2023/12/18 10:39:29;;;;;;;21.88;17.23;;;;;;;;;;5073526;28;20083;-51
2023/12/18 10:41:59;;;;;;;22.85;19.08;;;;;;;;;;5073162;28;20043;-47
2023/12/18 10:44:26;;;;;;;23.70;18.55;;;;;;;;;;5075310;28;20036;-49
2023/12/18 10:46:53;;;;;;;25.98;20.00;;;;;;;;;;5074421;28;20058;-49
2023/12/18 10:49:20;;;;;;;26.05;20.75;;;;;;;;;;5075095;28;20518;-49
2023/12/18 10:51:46;;;;;;;21.95;17.65;;;;;;;;;;5075834;28;20028;-51
2023/12/18 10:54:12;;;;;;;19.65;16.60;;;;;;;;;;5072963;28;20036;-48
2023/12/18 10:56:39;;;;;;;20.58;18.40;;;;;;;;;;5073339;28;20494;-50
2023/12/18 10:59:06;;;;;;;21.58;16.58;;;;;;;;;;5072277;28;20112;-52
2023/12/18 11:01:34;;;;;;;22.08;17.02;;;;;;;;;;5074417;28;20029;-48
2023/12/18 11:04:00;;;;;;;22.35;17.63;;;;;;;;;;5076128;28;20047;-52
2023/12/18 11:06:28;;;;;;;22.65;17.08;;;;;;;;;;5073090;28;20108;-48
2023/12/18 11:08:53;;;;;;;21.80;19.05;;;;;;;;;;5069044;28;20032;-50
2023/12/18 11:11:20;;;;;;;23.40;18.02;;;;;;;;;;5075081;28;20436;-47
2023/12/18 11:14:14;;;;;;;20.95;18.77;;;;;;;;;;5076194;28;20033;-49
2023/12/18 11:17:05;;;;;;;21.20;18.90;;;;;;;;;;5073538;28;20032;-50
2023/12/18 11:19:53;;;;;;;23.38;19.42;;;;;;;;;;5072419;28;20036;-48
2023/12/18 11:22:38;;;;;;;27.98;22.88;;;;;;;;;;5069630;28;20029;-47
2023/12/18 11:25:05;;;;;;;26.02;21.98;;;;;;;;;;5075630;28;20086;-50
2023/12/18 11:27:30;;;;;;;20.98;18.83;;;;;;;;;;5067001;28;20577;-49
2023/12/18 11:29:55;;;;;;;22.92;19.02;;;;;;;;;;5066259;28;20078;-51
2023/12/18 11:32:46;;;;;;;23.73;21.35;;;;;;;;;;5061225;28;20082;-48
2023/12/18 11:35:14;;;;;;;23.75;19.55;;;;;;;;;;5068429;28;20051;-49
2023/12/18 11:37:41;;;;;;;25.35;20.27;;;;;;;;;;5071710;28;20092;-43
2023/12/18 11:40:36;;;;;;;21.27;19.08;;;;;;;;;;5075778;28;20029;-49
2023/12/18 11:43:03;;;;;;;21.90;19.27;;;;;;;;;;5073309;28;20564;-46
2023/12/18 11:45:29;;;;;;;22.02;17.88;;;;;;;;;;5075353;28;20017;-48
2023/12/18 11:47:57;;;;;;;21.15;18.52;;;;;;;;;;5076320;28;20051;-48
2023/12/18 11:50:26;;;;;;;22.92;19.15;;;;;;;;;;5076562;28;20017;-49
2023/12/18 11:52:56;;;;;;;20.83;17.95;;;;;;;;;;5076375;28;20036;-46
2023/12/18 11:55:39;;;;;;;23.10;19.67;;;;;;;;;;5076612;28;20036;-52
2023/12/18 11:58:05;;;;;;;21.40;17.13;;;;;;;;;;5082221;28;20044;-50
2023/12/18 12:00:32;;;;;;;21.02;17.50;;;;;;;;;;5076767;28;20020;-47
2023/12/18 12:02:58;;;;;;;26.98;20.92;;;;;;;;;;5075566;28;20089;-51
2023/12/18 12:05:24;;;;;;;25.55;20.23;;;;;;;;;;5070376;28;20877;-51
2023/12/18 12:07:54;;;;;;;23.75;20.15;;;;;;;;;;5075776;28;20031;-50
2023/12/18 12:10:22;;;;;;;24.20;21.70;;;;;;;;;;5078152;28;20054;-46
2023/12/18 12:12:56;;;;;;;23.90;21.40;;;;;;;;;;5075237;28;20090;-47
2023/12/18 12:15:23;;;;;;;24.65;21.25;;;;;;;;;;5076690;28;20439;-50
2023/12/18 12:17:49;;;;;;;26.13;21.42;;;;;;;;;;5077554;28;20024;-48
2023/12/18 12:20:14;;;;;;;23.17;20.80;;;;;;;;;;5073851;28;20403;-46
2023/12/18 12:22:40;;;;;;;25.30;20.50;;;;;;;;;;5067700;28;20027;-46
2023/12/18 12:25:06;;;;;;;23.02;20.10;;;;;;;;;;5075490;28;20600;-49
2023/12/18 12:27:31;;;;;;;30.45;23.80;;;;;;;;;;5075135;28;20086;-45
2023/12/18 12:29:57;;;;;;;29.85;24.17;;;;;;;;;;5064403;28;20041;-45
2023/12/18 12:32:24;;;;;;;24.75;22.23;;;;;;;;;;5070856;28;20034;-47
2023/12/18 12:34:50;;;;;;;23.33;20.95;;;;;;;;;;5067286;28;20052;-49
2023/12/18 12:37:16;;;;;;;21.45;19.15;;;;;;;;;;5075842;28;20367;-45
2023/12/18 12:40:07;;;;;;;23.60;19.25;;;;;;;;;;5073283;28;20036;-47
2023/12/18 12:42:37;;;;;;;21.85;19.60;;;;;;;;;;5074123;28;20028;-49
2023/12/18 12:45:04;;;;;;;24.70;21.50;;;;;;;;;;5075310;28;20025;-46
2023/12/18 12:47:29;;;;;;;24.58;22.10;;;;;;;;;;5074592;28;20052;-47
2023/12/18 12:49:55;;;;;;;20.88;18.38;;;;;;;;;;5077368;28;20036;-47
2023/12/18 12:52:20;;;;;;;23.38;20.55;;;;;;;;;;5074577;28;20160;-47
2023/12/18 12:54:46;;;;;;;23.65;19.88;;;;;;;;;;5073657;28;20809;-47
2023/12/18 12:57:13;;;;;;;23.27;20.75;;;;;;;;;;5073173;28;20024;-50
2023/12/18 12:59:51;;;;;;;19.83;16.80;;;;;;;;;;5083983;28;20098;-45
2023/12/18 13:02:18;;;;;;;19.80;17.70;;;;;;;;;;5069171;28;20042;-50
2023/12/18 13:04:43;;;;;;;24.42;17.73;;;;;;;;;;5075267;28;20037;-48
2023/12/18 13:07:09;;;;;;;21.10;18.05;;;;;;;;;;5075771;28;20376;-51
2023/12/18 13:09:34;;;;;;;19.23;16.73;;;;;;;;;;5076909;28;20049;-50
2023/12/18 13:12:04;;;;;;;16.70;14.60;;;;;;;;;;5053916;28;20166;-46
2023/12/18 13:14:32;;;;;;;20.48;17.30;;;;;;;;;;5073826;28;20037;-45
2023/12/18 13:16:57;;;;;;;18.98;17.02;;;;;;;;;;5078382;28;20039;-46
2023/12/18 13:19:23;;;;;;;17.60;15.40;;;;;;;;;;5073204;28;20124;-48
2023/12/18 13:21:48;;;;;;;20.75;16.30;;;;;;;;;;5072992;28;20025;-51
2023/12/18 13:24:14;;;;;;;17.30;15.20;;;;;;;;;;5082289;28;20463;-46
2023/12/18 13:26:40;;;;;;;17.45;15.57;;;;;;;;;;5084890;28;20039;-47
2023/12/18 13:29:05;;;;;;;17.33;15.38;;;;;;;;;;5071782;28;20040;-46
2023/12/18 13:31:33;;;;;;;21.02;18.63;;;;;;;;;;5072437;28;20017;-47
2023/12/18 13:33:59;;;;;;;19.35;15.70;;;;;;;;;;5088200;28;20028;-50
2023/12/18 13:36:25;;;;;;;18.83;14.88;;;;;;;;;;5072654;28;20029;-45
2023/12/18 13:38:50;;;;;;;17.27;15.43;;;;;;;;;;5073643;28;20058;-46
2023/12/18 13:41:16;;;;;;;19.33;17.08;;;;;;;;;;5076073;28;20017;-45
2023/12/18 13:43:41;;;;;;;20.83;18.27;;;;;;;;;;5071620;28;20098;-47
2023/12/18 13:46:07;;;;;;;19.45;16.42;;;;;;;;;;5076245;28;20036;-47
2023/12/18 13:48:33;;;;;;;19.55;16.77;;;;;;;;;;5073138;28;20090;-46
2023/12/18 13:51:00;;;;;;;19.35;16.83;;;;;;;;;;5076413;28;20029;-45
2023/12/18 13:53:25;;;;;;;17.85;15.00;;;;;;;;;;5073035;28;20044;-47
2023/12/18 13:55:51;;;;;;;17.70;13.25;;;;;;;;;;5077503;28;20055;-48
2023/12/18 13:58:16;;;;;;;14.75;11.43;;;;;;;;;;5074702;28;20040;-47
2023/12/18 14:00:45;;;;;;;16.13;11.25;;;;;;;;;;5075795;28;20024;-46
2023/12/18 14:03:11;;;;;;;;;;;;;;;;;;5072457;28;20045;-47
2023/12/18 14:05:36;;;;;;;21.67;15.00;;;;;;;;;;5074332;28;19916;-46
2023/12/18 14:08:02;;;;;;;22.52;15.27;;;;;;;;;;5073295;28;20696;-46
2023/12/18 14:10:27;;;;;;;19.63;15.20;;;;;;;;;;5072182;28;20047;-49
2023/12/18 14:12:53;;;;;;;24.05;15.10;;;;;;;;;;5072819;28;20110;-45
2023/12/18 14:15:18;;;;;;;16.20;14.30;;;;;;;;;;5074439;28;20466;-47
2023/12/18 14:17:44;;;;;;;16.98;15.07;;;;;;;;;;5073368;28;20102;-49
2023/12/18 14:20:10;;;;;;;23.15;14.35;;;;;;;;;;5069432;28;20055;-46
2023/12/18 14:22:35;;;;;;;15.85;14.00;;;;;;;;;;5073402;28;20100;-48
2023/12/18 14:25:01;;;;;;;13.27;11.88;;;;;;;;;;5073654;28;20747;-49
2023/12/18 14:27:27;;;;;;;13.93;11.40;;;;;;;;;;5075758;28;20028;-48